createdAt,value
2019-03-12T00:00:36.367Z,19.9
2019-03-12T00:01:26.152Z,19.9
2019-03-12T00:02:16.464Z,19.9
2019-03-12T00:03:06.027Z,19.9
2019-03-12T00:03:55.540Z,19.9
2019-03-12T00:04:46.407Z,19.9
2019-03-12T00:05:35.669Z,19.9
2019-03-12T00:06:26.599Z,19.9
2019-03-12T00:07:16.617Z,19.9
2019-03-12T00:08:06.111Z,19.9
2019-03-12T00:08:56.531Z,19.9
2019-03-12T00:09:46.262Z,19.9
2019-03-12T00:10:36.830Z,19.9
2019-03-12T00:11:26.874Z,19.9
2019-03-12T00:12:16.742Z,19.9
2019-03-12T00:13:06.719Z,19.9
2019-03-12T00:13:57.077Z,19.9
2019-03-12T00:14:47.382Z,19.9
2019-03-12T00:15:37.457Z,19.9
2019-03-12T00:16:27.001Z,19.9
2019-03-12T00:17:16.464Z,19.9
2019-03-12T00:18:07.187Z,19.9
2019-03-12T00:18:56.609Z,19.9
2019-03-12T00:19:46.931Z,19.9
2019-03-12T00:20:36.699Z,19.9
2019-03-12T00:21:27.896Z,20
2019-03-12T00:22:17.109Z,19.9
2019-03-12T00:23:07.520Z,20
2019-03-12T00:23:57.530Z,20
2019-03-12T00:24:47.554Z,20
2019-03-12T00:25:37.953Z,19.9
2019-03-12T00:26:27.717Z,19.9
2019-03-12T00:27:17.501Z,19.9
2019-03-12T00:28:07.809Z,19.9
2019-03-12T00:28:57.587Z,20
2019-03-12T00:29:48.570Z,20
2019-03-12T00:30:37.813Z,20
2019-03-12T00:31:27.879Z,20
2019-03-12T00:32:18.396Z,20
2019-03-12T00:33:08.823Z,20
2019-03-12T00:33:58.243Z,20
2019-03-12T00:34:48.568Z,20
2019-03-12T00:35:38.428Z,20
2019-03-12T00:36:28.415Z,20
2019-03-12T00:37:18.218Z,20
2019-03-12T00:38:08.251Z,20
2019-03-12T00:38:58.870Z,20
2019-03-12T00:39:49.210Z,20
2019-03-12T00:40:39.108Z,20
2019-03-12T00:41:29.338Z,20
2019-03-12T00:42:18.568Z,20
2019-03-12T00:43:09.169Z,20
2019-03-12T00:43:58.727Z,20
2019-03-12T00:44:49.414Z,20
2019-03-12T00:45:39.358Z,20
2019-03-12T00:46:32.170Z,20
2019-03-12T00:47:18.944Z,20
2019-03-12T00:48:09.251Z,20
2019-03-12T00:48:59.895Z,20
2019-03-12T00:49:49.377Z,20
2019-03-12T00:50:39.710Z,20
2019-03-12T00:51:29.512Z,20
2019-03-12T00:52:19.834Z,20
2019-03-12T00:53:09.642Z,20
2019-03-12T00:53:59.424Z,20
2019-03-12T00:54:49.469Z,20
2019-03-12T00:55:39.832Z,20
2019-03-12T00:56:29.324Z,20.1
2019-03-12T00:57:19.651Z,20
2019-03-12T00:58:10.304Z,20.1
2019-03-12T00:58:59.487Z,20.1
2019-03-12T00:59:49.867Z,20
2019-03-12T01:00:39.905Z,20
2019-03-12T01:01:30.537Z,20.1
2019-03-12T01:02:20.850Z,20.1
2019-03-12T01:03:10.449Z,20.1
2019-03-12T01:04:00.984Z,20
2019-03-12T01:04:50.206Z,20.1
2019-03-12T01:05:40.547Z,20.1
2019-03-12T01:06:31.168Z,20.1
2019-03-12T01:07:20.996Z,20.1
2019-03-12T01:08:10.434Z,20.1
2019-03-12T01:09:01.411Z,20.1
2019-03-12T01:09:50.563Z,20.1
2019-03-12T01:10:41.521Z,20.1
2019-03-12T01:11:31.514Z,20.1
2019-03-12T01:12:21.299Z,20.1
2019-03-12T01:13:10.621Z,20.1
2019-03-12T01:14:01.714Z,20.1
2019-03-12T01:14:50.923Z,20.1
2019-03-12T01:15:41.873Z,20.1
2019-03-12T01:16:30.483Z,20.1
2019-03-12T01:17:21.651Z,20.1
2019-03-12T01:18:14.719Z,20.1
2019-03-12T01:19:01.866Z,20.1
2019-03-12T01:19:52.124Z,20.1
2019-03-12T01:20:41.416Z,20.1
2019-03-12T01:21:31.989Z,20.1
2019-03-12T01:22:22.111Z,20.1
2019-03-12T01:23:11.800Z,20.1
2019-03-12T01:24:02.273Z,20.1
2019-03-12T01:24:52.230Z,20.1
2019-03-12T01:25:41.825Z,20.1
2019-03-12T01:26:31.786Z,20.1
2019-03-12T01:27:22.393Z,20.1
2019-03-12T01:28:12.732Z,20.1
2019-03-12T01:29:02.496Z,20.1
2019-03-12T01:29:52.595Z,20.1
2019-03-12T01:30:42.662Z,20.1
2019-03-12T01:31:32.678Z,20.1
2019-03-12T01:32:23.059Z,20.1
2019-03-12T01:33:12.525Z,20.1
2019-03-12T01:34:02.645Z,20.1
2019-03-12T01:34:52.098Z,20.1
2019-03-12T01:35:42.737Z,20.1
2019-03-12T01:36:33.323Z,20.1
2019-03-12T01:37:22.844Z,20.1
2019-03-12T01:38:13.182Z,20.1
2019-03-12T01:39:02.680Z,20.1
2019-03-12T01:39:53.278Z,20.1
2019-03-12T01:40:43.626Z,20.1
2019-03-12T01:41:32.309Z,20.1
2019-03-12T01:42:23.627Z,20.1
2019-03-12T01:43:13.282Z,20.1
2019-03-12T01:44:03.595Z,20.1
2019-03-12T01:44:53.384Z,20.1
2019-03-12T01:45:43.717Z,20.1
2019-03-12T01:46:33.547Z,20.1
2019-03-12T01:47:23.951Z,20.1
2019-03-12T01:48:13.634Z,20.1
2019-03-12T01:49:03.407Z,20.1
2019-03-12T01:49:54.004Z,20.1
2019-03-12T01:50:44.376Z,20.1
2019-03-12T01:51:36.036Z,20.1
2019-03-12T01:52:24.199Z,20.1
2019-03-12T01:53:14.269Z,20.1
2019-03-12T01:54:04.084Z,20.1
2019-03-12T01:54:54.114Z,20.1
2019-03-12T01:55:44.463Z,20.1
2019-03-12T01:56:34.276Z,20.2
2019-03-12T01:57:24.650Z,20.1
2019-03-12T01:58:18.101Z,20.1
2019-03-12T01:59:04.153Z,20.1
2019-03-12T01:59:54.488Z,20.2
2019-03-12T02:00:44.838Z,20.2
2019-03-12T02:01:34.599Z,20.1
2019-03-12T02:02:24.643Z,20.1
2019-03-12T02:03:15.126Z,20.2
2019-03-12T02:04:04.858Z,20.2
2019-03-12T02:04:54.003Z,20.2
2019-03-12T02:05:45.168Z,20.2
2019-03-12T02:06:34.972Z,20.2
2019-03-12T02:07:25.574Z,20.2
2019-03-12T02:08:14.800Z,20.2
2019-03-12T02:09:05.758Z,20.2
2019-03-12T02:09:55.490Z,20.2
2019-03-12T02:10:45.340Z,20.2
2019-03-12T02:11:35.885Z,20.2
2019-03-12T02:12:24.822Z,20.2
2019-03-12T02:13:15.705Z,20.2
2019-03-12T02:14:05.782Z,20.2
2019-03-12T02:14:55.590Z,20.2
2019-03-12T02:15:45.630Z,20.2
2019-03-12T02:16:38.700Z,20.2
2019-03-12T02:17:25.517Z,20.2
2019-03-12T02:18:15.795Z,20.2
2019-03-12T02:19:06.170Z,20.2
2019-03-12T02:19:56.020Z,20.2
2019-03-12T02:20:46.542Z,20.2
2019-03-12T02:21:36.030Z,20.2
2019-03-12T02:22:26.395Z,20.3
2019-03-12T02:23:15.617Z,20.2
2019-03-12T02:24:05.992Z,20.2
2019-03-12T02:24:58.172Z,20.2
2019-03-12T02:25:46.616Z,20.2
2019-03-12T02:26:36.144Z,20.2
2019-03-12T02:27:26.745Z,20.3
2019-03-12T02:28:16.527Z,20.3
2019-03-12T02:29:07.163Z,20.3
2019-03-12T02:29:56.639Z,20.2
2019-03-12T02:30:47.189Z,20.3
2019-03-12T02:31:36.818Z,20.3
2019-03-12T02:32:26.587Z,20.3
2019-03-12T02:33:16.042Z,20.3
2019-03-12T02:34:07.581Z,20.3
2019-03-12T02:34:57.111Z,20.3
2019-03-12T02:35:47.305Z,20.3
2019-03-12T02:36:36.944Z,20.3
2019-03-12T02:37:27.613Z,20.3
2019-03-12T02:38:17.893Z,20.3
2019-03-12T02:39:07.635Z,20.3
2019-03-12T02:39:57.431Z,20.3
2019-03-12T02:40:47.782Z,20.3
2019-03-12T02:41:37.872Z,20.3
2019-03-12T02:42:27.876Z,20.3
2019-03-12T02:43:18.042Z,20.3
2019-03-12T02:44:07.794Z,20.3
2019-03-12T02:44:58.352Z,20.3
2019-03-12T02:45:48.212Z,20.3
2019-03-12T02:46:38.462Z,20.3
2019-03-12T02:47:28.094Z,20.3
2019-03-12T02:48:18.051Z,20.3
2019-03-12T02:49:13.899Z,20.3
2019-03-12T02:49:58.143Z,20.3
2019-03-12T02:50:47.666Z,20.3
2019-03-12T02:51:38.824Z,20.3
2019-03-12T02:52:28.995Z,20.3
2019-03-12T02:53:18.439Z,20.3
2019-03-12T02:54:08.326Z,20.3
2019-03-12T02:54:58.245Z,20.3
2019-03-12T02:55:48.568Z,20.3
2019-03-12T02:56:38.101Z,20.3
2019-03-12T02:57:28.977Z,20.3
2019-03-12T02:58:18.761Z,20.3
2019-03-12T02:59:09.182Z,20.3
2019-03-12T02:59:58.703Z,20.3
2019-03-12T03:00:48.681Z,20.3
2019-03-12T03:01:39.443Z,20.3
2019-03-12T03:02:28.991Z,20.3
2019-03-12T03:03:19.423Z,20.3
2019-03-12T03:04:09.742Z,20.3
2019-03-12T03:07:39.291Z,20.3
2019-03-12T03:08:30.562Z,20.3
2019-03-12T03:09:20.076Z,20.3
2019-03-12T03:10:10.287Z,20.3
2019-03-12T03:11:00.177Z,20.3
2019-03-12T03:11:54.220Z,20.3
2019-03-12T03:12:40.442Z,20.3
2019-03-12T03:13:30.130Z,20.3
2019-03-12T03:14:20.580Z,20.3
2019-03-12T03:15:10.366Z,20.3
2019-03-12T03:16:01.040Z,20.3
2019-03-12T03:16:50.514Z,20.3
2019-03-12T03:17:40.879Z,20.3
2019-03-12T03:18:30.948Z,20.3
2019-03-12T03:19:20.669Z,20.3
2019-03-12T03:20:10.788Z,20.3
2019-03-12T03:21:00.684Z,20.3
2019-03-12T03:21:50.297Z,20.3
2019-03-12T03:22:41.539Z,20.3
2019-03-12T03:23:31.136Z,20.3
2019-03-12T03:24:21.375Z,20.3
2019-03-12T03:25:11.151Z,20.4
2019-03-12T03:26:01.357Z,20.3
2019-03-12T03:26:51.166Z,20.3
2019-03-12T03:27:41.019Z,20.3
2019-03-12T03:28:31.897Z,20.3
2019-03-12T03:29:21.414Z,20.4
2019-03-12T03:30:11.544Z,20.4
2019-03-12T03:31:02.367Z,20.3
2019-03-12T03:31:51.731Z,20.4
2019-03-12T03:32:42.079Z,20.4
2019-03-12T03:33:32.392Z,20.4
2019-03-12T03:34:31.639Z,20.4
2019-03-12T03:35:12.079Z,20.4
2019-03-12T03:36:02.367Z,20.4
2019-03-12T03:36:52.257Z,20.4
2019-03-12T03:37:42.275Z,20.4
2019-03-12T03:38:32.368Z,20.4
2019-03-12T03:39:22.408Z,20.4
2019-03-12T03:40:12.521Z,20.4
2019-03-12T03:41:02.725Z,20.4
2019-03-12T03:41:52.669Z,20.4
2019-03-12T03:42:42.508Z,20.4
2019-03-12T03:43:33.035Z,20.4
2019-03-12T03:44:22.603Z,20.4
2019-03-12T03:45:12.952Z,20.4
2019-03-12T03:46:03.218Z,20.4
2019-03-12T03:46:52.686Z,20.4
2019-03-12T03:47:43.079Z,20.4
2019-03-12T03:48:33.011Z,20.4
2019-03-12T03:49:23.480Z,20.4
2019-03-12T03:50:13.273Z,20.4
2019-03-12T03:51:03.052Z,20.4
2019-03-12T03:51:53.349Z,20.4
2019-03-12T03:52:43.537Z,20.4
2019-03-12T03:53:33.003Z,20.4
2019-03-12T03:54:23.420Z,20.4
2019-03-12T03:55:13.167Z,20.4
2019-03-12T03:56:04.195Z,20.4
2019-03-12T03:56:53.724Z,20.4
2019-03-12T03:57:43.878Z,20.4
2019-03-12T03:58:33.292Z,20.4
2019-03-12T03:59:23.988Z,20.4
2019-03-12T04:00:13.912Z,20.4
2019-03-12T04:01:03.735Z,20.4
2019-03-12T04:01:53.789Z,20.4
2019-03-12T04:02:44.459Z,20.4
2019-03-12T04:03:34.596Z,20.4
2019-03-12T04:04:24.670Z,20.4
2019-03-12T04:05:14.602Z,20.4
2019-03-12T04:06:03.922Z,20.4
2019-03-12T04:06:54.207Z,20.4
2019-03-12T04:07:43.915Z,20.4
2019-03-12T04:08:34.315Z,20.4
2019-03-12T04:09:24.077Z,20.4
2019-03-12T04:10:14.867Z,20.4
2019-03-12T04:11:04.763Z,20.4
2019-03-12T04:11:54.511Z,20.4
2019-03-12T04:12:44.754Z,20.4
2019-03-12T04:13:34.978Z,20.4
2019-03-12T04:14:24.392Z,20.4
2019-03-12T04:15:14.852Z,20.4
2019-03-12T04:16:05.634Z,20.4
2019-03-12T04:16:55.179Z,20.4
2019-03-12T04:17:45.638Z,20.4
2019-03-12T04:18:35.358Z,20.4
2019-03-12T04:19:25.207Z,20.4
2019-03-12T04:20:14.749Z,20.4
2019-03-12T04:21:05.826Z,20.4
2019-03-12T04:21:55.528Z,20.4
2019-03-12T04:22:45.389Z,20.4
2019-03-12T04:23:35.216Z,20.4
2019-03-12T04:24:25.409Z,20.4
2019-03-12T04:25:15.390Z,20.4
2019-03-12T04:26:05.879Z,20.4
2019-03-12T04:26:55.895Z,20.4
2019-03-12T04:27:46.358Z,20.5
2019-03-12T04:28:36.286Z,20.4
2019-03-12T04:29:26.351Z,20.4
2019-03-12T04:30:15.562Z,20.4
2019-03-12T04:31:06.469Z,20.4
2019-03-12T04:31:56.563Z,20.4
2019-03-12T04:32:46.160Z,20.4
2019-03-12T04:33:36.150Z,20.5
2019-03-12T04:34:26.213Z,20.4
2019-03-12T04:35:16.595Z,20.4
2019-03-12T04:36:05.972Z,20.4
2019-03-12T04:36:56.750Z,20.5
2019-03-12T04:37:46.949Z,20.5
2019-03-12T04:38:36.426Z,20.4
2019-03-12T04:39:26.149Z,20.5
2019-03-12T04:40:16.329Z,20.5
2019-03-12T04:41:06.622Z,20.5
2019-03-12T04:41:56.629Z,20.5
2019-03-12T04:42:46.528Z,20.5
2019-03-12T04:43:37.069Z,20.5
2019-03-12T04:44:27.190Z,20.5
2019-03-12T04:45:17.257Z,20.5
2019-03-12T04:46:07.218Z,20.5
2019-03-12T04:46:57.134Z,20.5
2019-03-12T04:47:46.893Z,20.5
2019-03-12T04:48:37.366Z,20.5
2019-03-12T04:49:27.206Z,20.5
2019-03-12T04:50:17.334Z,20.5
2019-03-12T04:51:07.254Z,20.4
2019-03-12T04:51:58.046Z,20.4
2019-03-12T04:52:47.454Z,20.4
2019-03-12T04:53:41.282Z,20.4
2019-03-12T04:54:27.808Z,20.4
2019-03-12T04:55:17.349Z,20.4
2019-03-12T04:56:07.937Z,20.3
2019-03-12T04:56:58.268Z,20.3
2019-03-12T04:57:48.172Z,20.3
2019-03-12T04:58:38.103Z,20.3
2019-03-12T04:59:27.922Z,20.3
2019-03-12T05:00:17.977Z,20.3
2019-03-12T05:01:08.018Z,20.3
2019-03-12T05:01:58.166Z,20.3
2019-03-12T05:02:48.401Z,20.3
2019-03-12T05:03:37.902Z,20.3
2019-03-12T05:04:28.818Z,20.3
2019-03-12T05:05:18.349Z,20.3
2019-03-12T05:06:08.375Z,20.3
2019-03-12T05:06:58.150Z,20.3
2019-03-12T05:07:48.803Z,20.3
2019-03-12T05:08:38.833Z,20.3
2019-03-12T05:09:28.628Z,20.3
2019-03-12T05:10:19.353Z,20.2
2019-03-12T05:11:08.827Z,20.2
2019-03-12T05:11:58.833Z,20.2
2019-03-12T05:12:49.148Z,20.2
2019-03-12T05:13:38.710Z,20.2
2019-03-12T05:14:28.975Z,20.2
2019-03-12T05:15:19.100Z,20.2
2019-03-12T05:16:09.098Z,20.2
2019-03-12T05:16:58.969Z,20.2
2019-03-12T05:17:49.080Z,20.2
2019-03-12T05:18:39.275Z,20.3
2019-03-12T05:19:29.340Z,20.2
2019-03-12T05:20:19.694Z,20.2
2019-03-12T05:21:09.220Z,20.2
2019-03-12T05:21:59.517Z,20.2
2019-03-12T05:22:50.030Z,20.2
2019-03-12T05:23:39.642Z,20.2
2019-03-12T05:24:29.690Z,20.2
2019-03-12T05:25:19.775Z,20.2
2019-03-12T05:26:09.524Z,20.2
2019-03-12T05:27:00.440Z,20.2
2019-03-12T05:27:49.509Z,20.2
2019-03-12T05:28:40.282Z,20.2
2019-03-12T05:29:30.052Z,20.2
2019-03-12T05:30:20.719Z,20.2
2019-03-12T05:31:10.767Z,20.2
2019-03-12T05:32:00.591Z,20.2
2019-03-12T05:32:50.771Z,20.2
2019-03-12T05:33:40.633Z,20.2
2019-03-12T05:34:30.479Z,20.2
2019-03-12T05:35:20.816Z,20.2
2019-03-12T05:36:10.849Z,20.2
2019-03-12T05:37:00.621Z,20.2
2019-03-12T05:37:50.992Z,20.2
2019-03-12T05:38:41.356Z,20.3
2019-03-12T05:39:31.391Z,20.2
2019-03-12T05:40:20.578Z,20.2
2019-03-12T05:41:14.201Z,20.3
2019-03-12T05:42:01.281Z,20.2
2019-03-12T05:42:51.018Z,20.2
2019-03-12T05:43:41.054Z,20.2
2019-03-12T05:44:31.168Z,20.2
2019-03-12T05:45:21.503Z,20.3
2019-03-12T05:46:11.806Z,20.2
2019-03-12T05:47:01.882Z,20.2
2019-03-12T05:47:51.650Z,20.2
2019-03-12T05:48:41.745Z,20.3
2019-03-12T05:49:31.248Z,20.2
2019-03-12T05:50:21.285Z,20.2
2019-03-12T05:51:11.608Z,20.3
2019-03-12T05:52:01.228Z,20.2
2019-03-12T05:52:53.535Z,20.3
2019-03-12T05:53:42.365Z,20.2
2019-03-12T05:54:31.910Z,20.2
2019-03-12T05:55:22.513Z,20.2
2019-03-12T05:56:11.958Z,20.3
2019-03-12T05:57:02.064Z,20.3
2019-03-12T05:57:52.543Z,20.2
2019-03-12T05:58:41.878Z,20.3
2019-03-12T05:59:32.298Z,20.3
2019-03-12T06:00:22.590Z,20.3
2019-03-12T06:01:12.619Z,20.2
2019-03-12T06:02:02.151Z,20.2
2019-03-12T06:02:52.482Z,20.2
2019-03-12T06:03:42.818Z,20.2
2019-03-12T06:05:39.517Z,20.2
2019-03-12T06:06:29.502Z,20.2
2019-03-12T06:07:19.894Z,20.2
2019-03-12T06:08:10.203Z,20.2
2019-03-12T06:09:00.202Z,20.2
2019-03-12T06:09:49.959Z,20.2
2019-03-12T06:10:40.035Z,20.2
2019-03-12T06:11:30.084Z,20.2
2019-03-12T06:12:20.426Z,20.2
2019-03-12T06:13:10.545Z,20.2
2019-03-12T06:14:00.561Z,20.2
2019-03-12T06:14:50.601Z,20.2
2019-03-12T06:15:40.952Z,20.2
2019-03-12T06:16:30.455Z,20.2
2019-03-12T06:17:21.129Z,20.2
2019-03-12T06:18:10.651Z,20.2
2019-03-12T06:19:00.716Z,20.2
2019-03-12T06:19:50.409Z,20.2
2019-03-12T06:20:40.751Z,20.2
2019-03-12T06:21:31.093Z,20.2
2019-03-12T06:22:21.173Z,20.3
2019-03-12T06:23:10.126Z,20.3
2019-03-12T06:24:01.564Z,20.3
2019-03-12T06:24:51.613Z,20.3
2019-03-12T06:25:40.876Z,20.3
2019-03-12T06:26:30.878Z,20.3
2019-03-12T06:27:22.589Z,20.3
2019-03-12T06:28:11.273Z,20.3
2019-03-12T06:29:01.064Z,20.3
2019-03-12T06:29:51.153Z,20.3
2019-03-12T06:30:41.456Z,20.3
2019-03-12T06:31:31.503Z,20.3
2019-03-12T06:32:21.851Z,20.3
2019-03-12T06:33:11.936Z,20.3
2019-03-12T06:34:01.713Z,20.3
2019-03-12T06:34:52.318Z,20.2
2019-03-12T06:35:41.290Z,20.2
2019-03-12T06:36:32.159Z,20.1
2019-03-12T06:37:21.671Z,20.1
2019-03-12T06:38:12.045Z,20.1
2019-03-12T06:39:02.061Z,20.1
2019-03-12T06:39:52.423Z,20.1
2019-03-12T06:40:42.742Z,20.1
2019-03-12T06:41:31.965Z,20.1
2019-03-12T06:42:22.590Z,20
2019-03-12T06:43:12.650Z,20.1
2019-03-12T06:44:02.779Z,20
2019-03-12T06:44:52.806Z,20
2019-03-12T06:45:43.111Z,20
2019-03-12T06:46:32.605Z,20
2019-03-12T06:47:22.381Z,20
2019-03-12T06:48:12.470Z,20
2019-03-12T06:49:03.056Z,20
2019-03-12T06:49:53.134Z,19.9
2019-03-12T06:50:43.477Z,20
2019-03-12T06:51:32.167Z,19.9
2019-03-12T06:52:23.304Z,19.9
2019-03-12T06:53:13.086Z,19.9
2019-03-12T06:54:03.702Z,19.9
2019-03-12T06:54:53.497Z,19.9
2019-03-12T06:55:46.000Z,19.9
2019-03-12T06:56:33.465Z,19.9
2019-03-12T06:57:23.106Z,19.9
2019-03-12T06:58:13.979Z,19.9
2019-03-12T06:59:03.314Z,19.9
2019-03-12T06:59:53.827Z,19.9
2019-03-12T07:00:43.629Z,19.9
2019-03-12T07:01:33.947Z,19.9
2019-03-12T07:02:24.288Z,19.9
2019-03-12T07:03:14.068Z,19.9
2019-03-12T07:05:39.332Z,19.9
2019-03-12T07:06:29.431Z,19.9
2019-03-12T07:07:22.466Z,19.9
2019-03-12T07:08:11.586Z,19.9
2019-03-12T07:09:00.436Z,19.9
2019-03-12T07:09:50.663Z,19.9
2019-03-12T07:10:39.954Z,19.9
2019-03-12T07:11:30.049Z,19.9
2019-03-12T07:12:20.369Z,19.8
2019-03-12T07:13:10.486Z,19.8
2019-03-12T07:14:00.769Z,19.8
2019-03-12T07:14:50.271Z,19.8
2019-03-12T07:15:40.386Z,19.8
2019-03-12T07:16:30.385Z,19.8
2019-03-12T07:17:20.480Z,19.8
2019-03-12T07:18:10.249Z,19.8
2019-03-12T07:19:00.827Z,19.8
2019-03-12T07:19:51.081Z,19.8
2019-03-12T07:20:40.978Z,19.8
2019-03-12T07:21:31.016Z,19.8
2019-03-12T07:22:20.793Z,19.8
2019-03-12T07:23:11.145Z,19.8
2019-03-12T07:24:01.188Z,19.8
2019-03-12T07:24:50.990Z,19.8
2019-03-12T07:25:41.300Z,19.8
2019-03-12T07:26:31.354Z,19.8
2019-03-12T07:27:21.416Z,19.8
2019-03-12T07:28:10.680Z,19.8
2019-03-12T07:29:01.909Z,19.8
2019-03-12T07:29:51.777Z,19.8
2019-03-12T07:30:41.445Z,19.8
2019-03-12T07:31:32.703Z,19.8
2019-03-12T07:32:21.780Z,19.8
2019-03-12T07:33:11.696Z,19.8
2019-03-12T07:34:01.643Z,19.8
2019-03-12T07:34:51.963Z,19.8
2019-03-12T07:35:42.035Z,19.8
2019-03-12T07:36:31.819Z,19.8
2019-03-12T07:37:21.887Z,19.8
2019-03-12T07:38:12.490Z,19.8
2019-03-12T07:39:02.514Z,19.8
2019-03-12T07:39:51.510Z,19.8
2019-03-12T07:40:41.857Z,19.8
2019-03-12T07:41:37.915Z,19.8
2019-03-12T07:42:21.957Z,19.8
2019-03-12T07:43:12.105Z,19.8
2019-03-12T07:44:02.382Z,19.8
2019-03-12T07:44:52.700Z,19.8
2019-03-12T07:45:46.189Z,19.8
2019-03-12T07:46:32.919Z,19.8
2019-03-12T07:47:36.794Z,19.8
2019-03-12T07:48:27.361Z,19.8
2019-03-12T07:49:02.769Z,19.8
2019-03-12T07:49:53.370Z,19.8
2019-03-12T07:50:43.173Z,19.8
2019-03-12T07:51:32.418Z,19.8
2019-03-12T07:52:22.964Z,19.8
2019-03-12T07:53:12.739Z,19.8
2019-03-12T07:54:05.209Z,19.8
2019-03-12T07:54:52.947Z,19.8
2019-03-12T07:55:43.271Z,19.8
2019-03-12T07:56:33.561Z,19.8
2019-03-12T07:57:23.639Z,19.8
2019-03-12T07:58:13.690Z,19.8
2019-03-12T07:59:03.693Z,19.8
2019-03-12T07:59:53.483Z,19.8
2019-03-12T08:00:43.834Z,19.8
2019-03-12T08:01:34.179Z,19.8
2019-03-12T08:02:22.836Z,19.8
2019-03-12T08:03:14.258Z,19.8
2019-03-12T08:04:04.410Z,19.8
2019-03-12T08:04:53.866Z,19.8
2019-03-12T08:05:44.198Z,19.8
2019-03-12T08:06:34.238Z,19.8
2019-03-12T08:07:24.056Z,19.8
2019-03-12T08:08:13.529Z,19.8
2019-03-12T08:09:04.731Z,19.8
2019-03-12T08:09:54.220Z,19.8
2019-03-12T08:10:44.863Z,19.8
2019-03-12T08:11:34.590Z,19.8
2019-03-12T08:12:24.984Z,19.8
2019-03-12T08:13:15.055Z,19.7
2019-03-12T08:14:03.955Z,19.8
2019-03-12T08:14:54.880Z,19.8
2019-03-12T08:15:44.740Z,19.8
2019-03-12T08:16:34.690Z,19.8
2019-03-12T08:17:24.758Z,19.8
2019-03-12T08:18:14.285Z,19.8
2019-03-12T08:19:05.164Z,19.8
2019-03-12T08:19:55.257Z,19.8
2019-03-12T08:20:45.267Z,19.8
2019-03-12T08:21:35.354Z,19.8
2019-03-12T08:22:25.397Z,19.8
2019-03-12T08:23:15.467Z,19.7
2019-03-12T08:24:05.537Z,19.8
2019-03-12T08:24:55.580Z,19.8
2019-03-12T08:25:49.075Z,19.8
2019-03-12T08:26:35.424Z,19.8
2019-03-12T08:27:28.605Z,19.7
2019-03-12T08:28:15.510Z,19.8
2019-03-12T08:29:05.612Z,19.8
2019-03-12T08:29:55.969Z,19.8
2019-03-12T08:30:45.549Z,19.7
2019-03-12T08:31:35.786Z,19.8
2019-03-12T08:32:29.234Z,19.7
2019-03-12T08:33:14.841Z,19.8
2019-03-12T08:34:06.227Z,19.7
2019-03-12T08:34:56.651Z,19.7
2019-03-12T08:35:46.430Z,19.8
2019-03-12T08:36:35.954Z,19.7
2019-03-12T08:37:26.543Z,19.8
2019-03-12T08:38:16.612Z,19.8
2019-03-12T08:39:06.859Z,19.8
2019-03-12T08:39:56.979Z,19.8
2019-03-12T08:41:01.646Z,19.7
2019-03-12T08:41:36.501Z,19.7
2019-03-12T08:42:26.556Z,19.7
2019-03-12T08:43:16.791Z,19.7
2019-03-12T08:44:07.036Z,19.8
2019-03-12T08:45:00.502Z,19.7
2019-03-12T08:45:53.755Z,19.8
2019-03-12T08:46:37.530Z,19.7
2019-03-12T08:47:26.721Z,19.7
2019-03-12T08:48:18.229Z,19.8
2019-03-12T08:49:07.492Z,19.7
2019-03-12T08:49:57.103Z,19.7
2019-03-12T08:50:47.237Z,19.7
2019-03-12T08:51:37.894Z,19.7
2019-03-12T08:52:27.436Z,19.7
2019-03-12T08:53:17.409Z,19.7
2019-03-12T08:54:07.739Z,19.8
2019-03-12T08:55:03.423Z,19.7
2019-03-12T08:55:48.166Z,19.7
2019-03-12T08:56:38.423Z,19.7
2019-03-12T08:57:28.252Z,19.7
2019-03-12T08:58:18.316Z,19.7
2019-03-12T08:59:08.088Z,19.7
2019-03-12T08:59:58.124Z,19.8
2019-03-12T09:00:47.948Z,19.7
2019-03-12T09:01:38.528Z,19.7
2019-03-12T09:02:28.579Z,19.7
2019-03-12T09:03:17.783Z,19.7
2019-03-12T09:04:08.728Z,19.8
2019-03-12T09:04:58.454Z,19.7
2019-03-12T09:05:48.505Z,19.8
2019-03-12T09:06:38.282Z,19.7
2019-03-12T09:07:27.807Z,19.7
2019-03-12T09:08:18.709Z,19.7
2019-03-12T09:09:08.756Z,19.7
2019-03-12T09:09:58.797Z,19.8
2019-03-12T09:10:48.865Z,19.7
2019-03-12T09:11:38.742Z,19.7
2019-03-12T09:12:28.984Z,19.8
2019-03-12T09:13:19.339Z,19.7
2019-03-12T09:14:08.292Z,19.7
2019-03-12T09:14:59.159Z,19.7
2019-03-12T09:15:49.614Z,19.7
2019-03-12T09:16:38.710Z,19.7
2019-03-12T09:17:29.359Z,19.7
2019-03-12T09:18:18.864Z,19.8
2019-03-12T09:19:09.459Z,19.7
2019-03-12T09:19:59.601Z,19.8
2019-03-12T09:20:49.022Z,19.7
2019-03-12T09:21:39.631Z,19.7
2019-03-12T09:22:29.979Z,19.7
2019-03-12T09:23:20.081Z,19.8
2019-03-12T09:24:10.104Z,19.8
2019-03-12T09:24:59.893Z,19.8
2019-03-12T09:25:50.237Z,19.8
2019-03-12T09:26:38.631Z,19.7
2019-03-12T09:27:29.999Z,19.7
2019-03-12T09:28:20.210Z,19.8
2019-03-12T09:29:10.403Z,19.8
2019-03-12T09:30:00.254Z,19.7
2019-03-12T09:30:49.761Z,19.8
2019-03-12T09:31:40.439Z,19.7
2019-03-12T09:32:30.139Z,19.7
2019-03-12T09:33:20.758Z,19.6
2019-03-12T09:34:10.798Z,19.6
2019-03-12T09:35:00.773Z,19.6
2019-03-12T09:35:50.078Z,19.6
2019-03-12T09:36:39.851Z,19.6
2019-03-12T09:37:30.538Z,19.5
2019-03-12T09:38:20.931Z,19.5
2019-03-12T09:39:10.893Z,19.5
2019-03-12T09:40:00.980Z,19.5
2019-03-12T09:40:50.467Z,19.4
2019-03-12T09:41:40.615Z,19.4
2019-03-12T09:42:30.899Z,19.4
2019-03-12T09:43:20.639Z,19.4
2019-03-12T09:44:11.277Z,19.4
2019-03-12T09:45:01.607Z,19.4
2019-03-12T09:45:51.397Z,19.4
2019-03-12T09:46:41.742Z,19.4
2019-03-12T09:47:31.170Z,19.4
2019-03-12T09:48:21.215Z,19.4
2019-03-12T09:49:11.346Z,19.4
2019-03-12T09:50:01.579Z,19.4
2019-03-12T09:50:51.484Z,19.4
2019-03-12T09:51:41.821Z,19.4
2019-03-12T09:52:31.871Z,19.4
2019-03-12T09:53:21.957Z,19.4
2019-03-12T09:54:11.487Z,19.4
2019-03-12T09:55:05.343Z,19.3
2019-03-12T09:55:52.561Z,19.4
2019-03-12T09:56:41.877Z,19.3
2019-03-12T09:57:31.669Z,19.3
2019-03-12T09:58:22.254Z,19.3
2019-03-12T09:59:12.047Z,19.4
2019-03-12T10:00:17.382Z,19.3
2019-03-12T10:00:51.883Z,19.3
2019-03-12T10:01:42.831Z,19.3
2019-03-12T10:02:32.630Z,19.3
2019-03-12T10:03:22.722Z,19.3
2019-03-12T10:04:12.737Z,19.3
2019-03-12T10:06:39.741Z,19.3
2019-03-12T10:07:29.542Z,19.3
2019-03-12T10:08:19.946Z,19.3
2019-03-12T10:09:09.741Z,19.3
2019-03-12T10:10:00.484Z,19.3
2019-03-12T10:10:49.543Z,19.3
2019-03-12T10:11:40.117Z,19.3
2019-03-12T10:12:30.500Z,19.3
2019-03-12T10:13:19.965Z,19.3
2019-03-12T10:14:09.210Z,19.3
2019-03-12T10:15:00.166Z,19.3
2019-03-12T10:15:50.143Z,19.3
2019-03-12T10:16:39.923Z,19.3
2019-03-12T10:17:30.807Z,19.3
2019-03-12T10:18:20.301Z,19.3
2019-03-12T10:19:11.012Z,19.3
2019-03-12T10:20:00.253Z,19.3
2019-03-12T10:20:51.151Z,19.3
2019-03-12T10:21:40.278Z,19.3
2019-03-12T10:22:30.318Z,19.3
2019-03-12T10:23:20.943Z,19.3
2019-03-12T10:24:10.993Z,19.3
2019-03-12T10:25:00.914Z,19.3
2019-03-12T10:25:50.846Z,19.3
2019-03-12T10:26:41.442Z,19.3
2019-03-12T10:27:30.546Z,19.3
2019-03-12T10:28:21.634Z,19.3
2019-03-12T10:29:11.645Z,19.3
2019-03-12T10:30:01.373Z,19.3
2019-03-12T10:30:51.281Z,19.3
2019-03-12T10:31:41.000Z,19.3
2019-03-12T10:32:31.895Z,19.3
2019-03-12T10:33:21.686Z,19.3
2019-03-12T10:34:11.715Z,19.3
2019-03-12T10:35:01.657Z,19.3
2019-03-12T10:35:52.763Z,19.3
2019-03-12T10:36:41.915Z,19.3
2019-03-12T10:37:31.413Z,19.3
2019-03-12T10:38:21.175Z,19.3
2019-03-12T10:39:12.075Z,19.3
2019-03-12T10:40:02.180Z,19.3
2019-03-12T10:40:52.299Z,19.3
2019-03-12T10:41:41.830Z,19.3
2019-03-12T10:42:31.577Z,19.3
2019-03-12T10:43:22.677Z,19.3
2019-03-12T10:44:11.908Z,19.3
2019-03-12T10:45:02.849Z,19.3
2019-03-12T10:45:52.557Z,19.3
2019-03-12T10:46:42.342Z,19.3
2019-03-12T10:47:32.674Z,19.3
2019-03-12T10:48:23.069Z,19.3
2019-03-12T10:49:12.624Z,19.3
2019-03-12T10:50:02.949Z,19.3
2019-03-12T10:50:53.201Z,19.3
2019-03-12T10:51:42.776Z,19.3
2019-03-12T10:52:32.477Z,19.3
2019-03-12T10:53:23.141Z,19.3
2019-03-12T10:54:12.614Z,19.3
2019-03-12T10:55:18.821Z,19.3
2019-03-12T10:55:52.993Z,19.3
2019-03-12T10:56:43.384Z,19.3
2019-03-12T10:57:33.113Z,19.3
2019-03-12T10:58:23.842Z,19.3
2019-03-12T10:59:13.315Z,19.3
2019-03-12T11:00:03.266Z,19.3
2019-03-12T11:00:53.810Z,19.3
2019-03-12T11:01:43.693Z,19.3
2019-03-12T11:02:33.457Z,19.3
2019-03-12T11:03:23.836Z,19.3
2019-03-12T11:04:14.183Z,19.3
2019-03-12T11:05:03.813Z,19.3
2019-03-12T11:05:53.438Z,19.3
2019-03-12T11:06:43.298Z,19.3
2019-03-12T11:07:34.398Z,19.3
2019-03-12T11:08:23.413Z,19.3
2019-03-12T11:09:14.235Z,19.3
2019-03-12T11:10:04.305Z,19.3
2019-03-12T11:10:52.775Z,19.3
2019-03-12T11:11:44.310Z,19.3
2019-03-12T11:12:34.319Z,19.3
2019-03-12T11:13:24.278Z,19.3
2019-03-12T11:14:13.850Z,19.3
2019-03-12T11:15:04.903Z,19.3
2019-03-12T11:15:54.720Z,19.3